createdAt,value
2023-04-25T00:35:58.507Z,88.30952297424814
2023-04-25T00:38:55.045Z,88.41242288923904
2023-04-25T00:41:55.575Z,88.77388920493239
2023-04-25T00:44:53.096Z,88.7300772033125
2023-04-25T00:47:48.705Z,88.30127055948672
2023-04-25T00:50:59.181Z,88.67589854667688
2023-04-25T00:53:55.736Z,88.53584354310914
2023-04-25T00:56:54.306Z,88.74338185460176
2023-04-25T00:59:51.872Z,88.65868660342373
2023-04-25T01:02:47.557Z,88.75179820020833
2023-04-25T01:05:44.984Z,89.4251509593136
2023-04-25T01:08:40.561Z,89.39945378703555
2023-04-25T01:11:39.389Z,89.46675082582884
2023-04-25T01:14:36.643Z,90.05276763973418
2023-04-25T01:17:33.228Z,90.94185554402952
2023-04-25T01:20:29.761Z,91.45162489918779
2023-04-25T01:23:26.359Z,91.69651491800357
2023-04-25T01:26:21.896Z,92.85742966466906
2023-04-25T01:29:18.430Z,93.81155540392005
2023-04-25T01:32:16.065Z,94.58213975261108
2023-04-25T01:35:13.573Z,94.67666608416364
2023-04-25T01:38:09.161Z,93.12246176688625
2023-04-25T01:41:05.677Z,93.66575024290074
2023-04-25T01:44:01.242Z,93.98705030637826
2023-04-25T01:46:56.793Z,91.58612399953526
2023-04-25T01:49:52.679Z,91.15260959990042
2023-04-25T01:52:48.160Z,90.55020281484994
2023-04-25T01:55:43.484Z,89.80591889568477
2023-04-25T01:58:42.101Z,88.8912513527575
2023-04-25T02:01:37.757Z,87.71588567106761
2023-04-25T02:04:38.299Z,87.60378637612482
2023-04-25T02:07:33.721Z,89.77424643534947
2023-04-25T02:10:29.298Z,89.34081171568893
2023-04-25T02:13:25.843Z,86.98666213113145
2023-04-25T02:16:21.537Z,86.6007168584568
2023-04-25T02:19:17.954Z,88.39499271753066
2023-04-25T02:22:13.520Z,87.41943787294878
2023-04-25T02:25:10.065Z,86.3361700579999
2023-04-25T02:28:06.646Z,87.7264048073549
2023-04-25T02:31:03.240Z,88.97017897791157
2023-04-25T02:33:58.790Z,90.181319039625
2023-04-25T02:36:54.347Z,90.27047944594227
2023-04-25T02:39:49.887Z,90.55598889675805
2023-04-25T02:42:46.466Z,91.1362369702762
2023-04-25T02:45:42.012Z,92.09880135995049
2023-04-25T02:48:37.570Z,91.73519386598068
2023-04-25T02:51:34.112Z,91.12370342984418
2023-04-25T02:54:29.680Z,92.07306149625748
2023-04-25T02:57:26.252Z,92.48415617853993
2023-04-25T03:00:22.842Z,92.1547692186704
2023-04-25T03:03:18.553Z,92.74820038890759
2023-04-25T03:06:14.979Z,92.66807143525597
2023-04-25T03:09:11.510Z,92.88476110528629
2023-04-25T03:12:07.029Z,93.01228558908558
2023-04-25T03:15:02.657Z,93.00622854445749
2023-04-25T03:18:08.120Z,92.84020900266546
2023-04-25T03:21:13.595Z,92.88123039438406
2023-04-25T03:24:10.255Z,92.72837873231434
2023-04-25T03:27:05.823Z,93.35960459236682
2023-04-25T03:30:01.321Z,92.8844270725961
2023-04-25T03:32:56.971Z,92.9913797690621
2023-04-25T03:35:53.490Z,92.9455230423249
2023-04-25T03:38:51.022Z,92.61119737755273
2023-04-25T03:41:46.584Z,93.38293580562352
2023-04-25T03:44:42.122Z,93.45496615330114
2023-04-25T03:47:42.755Z,92.88546963497828
2023-04-25T03:50:39.279Z,92.92802631390381
2023-04-25T03:53:34.844Z,93.03802530330839
2023-04-25T03:56:31.406Z,93.11045680162248
2023-04-25T03:59:26.954Z,92.50717692783083
2023-04-25T04:02:23.601Z,92.53180211477766
2023-04-25T04:05:19.148Z,91.26887717712113
2023-04-25T04:08:15.637Z,92.25693179961823
2023-04-25T04:11:11.188Z,92.43806325660125
2023-04-25T04:14:07.769Z,92.47998876447669
2023-04-25T04:17:03.325Z,92.90207987935241
2023-04-25T04:19:58.852Z,92.69787943017033
2023-04-25T04:22:54.415Z,93.00658645996904
2023-04-25T04:25:51.011Z,92.74329433146083
2023-04-25T04:28:46.566Z,92.62363490935113
2023-04-25T04:31:43.152Z,92.88432867274783
2023-04-25T04:34:39.655Z,92.29956753326965
2023-04-25T04:37:35.263Z,92.36516389815418
2023-04-25T04:40:31.812Z,92.22431999702879
2023-04-25T04:43:30.351Z,91.95616074311222
2023-04-25T04:46:28.901Z,91.17729106330358
2023-04-25T04:49:25.463Z,91.67475772305136
2023-04-25T04:52:22.021Z,91.73388373473657
2023-04-25T04:55:18.590Z,90.97192259151984
2023-04-25T04:58:23.822Z,90.9002605339655
2023-04-25T05:01:34.178Z,91.00313699116461
2023-04-25T05:04:34.295Z,90.52253531779063
2023-04-25T05:07:38.181Z,90.34000361628888
2023-04-25T05:10:47.265Z,89.6528046459027
2023-04-25T05:13:46.532Z,90.60317244534902
2023-04-25T05:16:47.788Z,91.23276996943488
2023-04-25T05:19:47.931Z,90.25355496187177
2023-04-25T05:22:49.469Z,89.69992501115946
2023-04-25T05:25:46.984Z,90.45169176103008
2023-04-25T05:28:52.544Z,90.26979168445627
2023-04-25T05:31:52.143Z,90.1379933600185
2023-04-25T05:34:53.559Z,90.34825078644079
2023-04-25T05:37:53.195Z,90.22123077532538
2023-04-25T05:40:57.759Z,90.51046706430621
2023-04-25T05:43:58.363Z,90.37636638895393
2023-04-25T05:47:07.918Z,89.51850277851372
2023-04-25T05:50:18.837Z,89.30666605823416
2023-04-25T05:53:28.864Z,89.49494334739319
2023-04-25T05:56:37.757Z,89.10900275308309
2023-04-25T05:59:40.902Z,89.31178182252091
2023-04-25T06:02:45.568Z,89.19877770954649
2023-04-25T06:05:57.884Z,90.13400504638567
2023-04-25T06:12:06.064Z,90.17782758250564
2023-04-25T06:15:26.637Z,89.83381080901619
2023-04-25T06:18:18.172Z,89.71826805256666
2023-04-25T06:21:27.080Z,89.1567404283605
2023-04-25T06:24:32.213Z,89.33476070130176
2023-04-25T06:27:30.763Z,89.82158888819914
2023-04-25T06:30:31.285Z,88.97620619888733
2023-04-25T06:33:35.850Z,89.39186939704777
2023-04-25T06:36:39.393Z,88.86118222873098
2023-04-25T06:39:41.490Z,87.87306223038122
2023-04-25T06:42:37.516Z,88.1629073215667
2023-04-25T06:45:48.663Z,87.96891862480928
2023-04-25T06:48:54.555Z,87.57328050421579
2023-04-25T06:51:57.062Z,87.07308026085762
2023-04-25T06:55:01.981Z,86.9016314609123
2023-04-25T06:58:01.190Z,87.11140499760228
2023-04-25T07:01:03.817Z,85.79606339313209
2023-04-25T07:04:13.441Z,85.81932207692508
2023-04-25T07:07:15.025Z,85.46573245152999
2023-04-25T07:10:20.323Z,85.84791309991853
2023-04-25T07:13:15.907Z,85.13176629865968
2023-04-25T07:16:18.540Z,84.72101009604997
2023-04-25T07:19:19.180Z,84.70956904839329
2023-04-25T07:22:19.315Z,83.86100325580144
2023-04-25T07:25:30.802Z,83.68702497359516
2023-04-25T07:28:32.645Z,83.85096908695336
2023-04-25T07:31:47.043Z,83.32405919917427
2023-04-25T07:34:47.715Z,81.88039942583579
2023-04-25T07:37:48.225Z,82.16943646139741
2023-04-25T07:40:53.796Z,81.53837841339809
2023-04-25T07:43:54.337Z,81.48265976620775
2023-04-25T07:46:50.862Z,81.02338105472914
2023-04-25T07:49:51.399Z,78.30063054757515
2023-04-25T07:52:51.839Z,78.35213225460313
2023-04-25T07:56:01.240Z,77.36455333972793
2023-04-25T07:59:06.007Z,78.38316451055526
2023-04-25T08:02:10.633Z,75.41851659307002
2023-04-25T08:05:18.789Z,75.7537560046276
2023-04-25T08:08:20.623Z,76.0288559323504
2023-04-25T08:11:22.214Z,77.08095319130655
2023-04-25T08:14:26.897Z,76.41887904248135
2023-04-25T08:17:29.288Z,74.99919827248631
2023-04-25T08:20:30.955Z,74.83752468743471
2023-04-25T08:23:36.380Z,74.94904657741235
2023-04-25T08:26:35.935Z,73.12915397351247
2023-04-25T08:29:47.432Z,71.52469093801315
2023-04-25T08:32:48.979Z,72.80111304865058
2023-04-25T08:35:45.569Z,71.92093249131646
2023-04-25T08:38:47.095Z,70.07636081842735
2023-04-25T08:42:02.363Z,70.8139537897445
2023-04-25T08:45:17.030Z,70.36731738234887
2023-04-25T08:48:28.606Z,68.28027601730292
2023-04-25T08:51:32.184Z,67.75370659407866
2023-04-25T08:54:44.863Z,66.45450391961539
2023-04-25T08:57:45.212Z,65.12637187907443
2023-04-25T09:00:55.738Z,64.80114057844308
2023-04-25T09:03:51.457Z,66.2457563090886
2023-04-25T09:06:56.801Z,65.31882636345892
2023-04-25T09:09:53.500Z,65.95631232540636
2023-04-25T09:13:09.050Z,65.55247305276018
2023-04-25T09:16:18.551Z,65.10287087900457
2023-04-25T09:19:22.135Z,65.48780707500957
2023-04-25T09:22:26.548Z,66.26651457268362
2023-04-25T09:25:36.084Z,64.30422771574392
2023-04-25T09:28:43.145Z,65.14650814597255
2023-04-25T09:31:57.283Z,65.95950330246615
2023-04-25T09:34:58.634Z,66.39072532447031
2023-04-25T09:38:05.360Z,63.46733828480317
2023-04-25T09:41:10.728Z,65.57839329367222
2023-04-25T09:44:23.216Z,64.56084322172549
2023-04-25T09:47:27.944Z,63.61329851661274
2023-04-25T09:50:29.347Z,64.56596058286529
2023-04-25T09:53:41.880Z,63.33456777484574
2023-04-25T09:56:49.382Z,63.177458464669336
2023-04-25T09:59:51.932Z,62.92776493771522
2023-04-25T10:02:54.548Z,62.71819578067515
2023-04-25T10:05:54.048Z,62.199535572716755
2023-04-25T10:09:09.060Z,62.03562424877606
2023-04-25T10:12:23.505Z,61.091312451375714
2023-04-25T10:15:20.607Z,62.95506689924691
2023-04-25T10:18:25.768Z,59.925981141465606
2023-04-25T10:21:33.571Z,60.7342644078228
2023-04-25T10:24:36.265Z,58.86202955590328
2023-04-25T10:27:43.803Z,59.179384389628844
2023-04-25T10:31:03.630Z,58.45872532898885
2023-04-25T10:34:10.598Z,59.28136737342679
2023-04-25T10:37:13.325Z,58.94814681926326
2023-04-25T10:40:11.937Z,56.72315811693776
2023-04-25T10:43:25.469Z,55.84878127711498
2023-04-25T10:46:40.619Z,54.53939342292524
2023-04-25T10:49:59.347Z,54.91344237596851
2023-04-25T10:53:12.949Z,53.96796652947516
2023-04-25T10:56:23.415Z,53.66028638975681
2023-04-25T10:59:25.990Z,53.56509099324402
2023-04-25T11:02:31.623Z,52.91470307799509
2023-04-25T11:05:44.353Z,52.46854375785801
2023-04-25T11:08:54.341Z,53.301366679525174
2023-04-25T11:11:56.158Z,54.43700095065477
2023-04-25T11:15:03.682Z,55.434398660399644
2023-04-25T11:18:15.164Z,51.1720553073545
2023-04-25T11:21:15.761Z,51.96790978393664
2023-04-25T11:24:23.280Z,50.17729080519582
2023-04-25T11:27:25.819Z,52.800008952180896
2023-04-25T11:30:35.801Z,51.817102840619256
2023-04-25T11:33:38.026Z,52.7342551926183
2023-04-25T11:36:44.411Z,52.14844405708357
2023-04-25T11:39:47.027Z,53.222921906828574
2023-04-25T11:42:49.627Z,53.876758653692555
2023-04-25T11:45:52.246Z,54.14575352455382
2023-04-25T11:48:52.033Z,52.75951851794065
2023-04-25T11:51:57.954Z,52.484349717167234
2023-04-25T11:55:11.097Z,52.39789378914763
2023-04-25T11:58:08.215Z,53.761432267770324
2023-04-25T12:01:08.757Z,53.235275098636095
2023-04-25T12:04:17.099Z,52.470343633030915
2023-04-25T12:07:22.829Z,49.735653389483524
2023-04-25T12:10:32.720Z,53.4077873553021
2023-04-25T12:13:37.991Z,52.810951094333504
2023-04-25T12:16:44.528Z,53.311914060889485
2023-04-25T12:19:48.995Z,49.671215829103545
2023-04-25T12:26:08.022Z,46.761600360524774
2023-04-25T12:29:16.561Z,45.39779900518737
2023-04-25T12:32:17.081Z,47.75330113148341
2023-04-25T12:35:22.633Z,48.92579009632756
2023-04-25T12:38:24.204Z,48.42829088875305
2023-04-25T12:41:29.883Z,48.24359875573052
2023-04-25T12:44:36.257Z,46.53659818688548
2023-04-25T12:47:35.908Z,44.506959285849604
2023-04-25T12:50:46.644Z,41.669965170271645
2023-04-25T12:53:57.857Z,43.600219976149816
2023-04-25T12:56:59.439Z,46.91011081172278
2023-04-25T13:00:00.704Z,47.572443629760244
2023-04-25T13:03:06.366Z,49.016452766422795
2023-04-25T13:06:16.473Z,48.84129349969997
2023-04-25T13:09:17.583Z,49.357932030299175
2023-04-25T13:12:23.067Z,49.341144209262
2023-04-25T13:15:23.994Z,49.78947237963978
2023-04-25T13:18:27.194Z,50.61670699236335
2023-04-25T13:21:23.765Z,51.38731653638021
2023-04-25T13:24:20.330Z,51.79454356487269
2023-04-25T13:27:30.981Z,45.51588299073698
2023-04-25T13:30:36.161Z,47.46303534050355
2023-04-25T13:33:40.898Z,43.03435360495415
2023-04-25T13:36:43.481Z,43.962801032804364
2023-04-25T13:39:44.952Z,42.12221231626264
2023-04-25T13:42:46.521Z,43.398352569874696
2023-04-25T13:45:49.128Z,40.34809064113668
2023-04-25T13:48:52.808Z,44.64605810413494
2023-04-25T13:51:56.188Z,46.886287962599184
2023-04-25T13:54:56.743Z,44.67352713967718
2023-04-25T13:58:08.336Z,44.71080925631793
2023-04-25T14:01:21.804Z,43.22249279149952
2023-04-25T14:04:28.315Z,42.338018902733786
2023-04-25T14:07:28.997Z,43.59827415498024
2023-04-25T14:10:36.428Z,41.51179705057085
2023-04-25T14:13:45.903Z,42.27772350132375
2023-04-25T14:16:48.468Z,41.37867660202657
2023-04-25T14:19:57.397Z,40.927440685962466
2023-04-25T14:23:03.479Z,40.464253116299915
2023-04-25T14:26:00.199Z,38.35876476391821
2023-04-25T14:29:01.623Z,40.736072352323355
2023-04-25T14:35:12.840Z,37.93556710971193
2023-04-25T14:38:13.163Z,38.93067268243315
2023-04-25T14:41:18.793Z,42.178363729537985
2023-04-25T14:44:19.319Z,43.749763717160064
2023-04-25T14:47:28.710Z,44.58614111438071
2023-04-25T14:50:31.407Z,45.21601650688725
2023-04-25T14:53:36.654Z,44.352429392313795
2023-04-25T14:56:39.472Z,40.82364181215042
2023-04-25T14:59:45.007Z,41.98880516402006
2023-04-25T15:02:44.670Z,43.6238163817262
2023-04-25T15:05:46.853Z,43.747449568683344
2023-04-25T15:08:56.372Z,44.21908493115401
2023-04-25T15:11:58.157Z,44.968794157113386
2023-04-25T15:18:15.277Z,40.068004007716866
2023-04-25T15:21:16.794Z,37.26507322647959
2023-04-25T15:24:22.344Z,38.25497115868542
2023-04-25T15:27:33.611Z,40.50463208598473
2023-04-25T15:30:35.365Z,36.59380640204156
2023-04-25T15:33:31.936Z,35.79421131458779
2023-04-25T15:36:37.490Z,35.93189375607639
2023-04-25T15:39:47.038Z,36.12256249100315
2023-04-25T15:42:47.541Z,35.7914028598115
2023-04-25T15:45:49.756Z,38.609426644757306
2023-04-25T15:48:59.554Z,38.99265776355281
2023-04-25T15:52:04.934Z,40.40909548484497
2023-04-25T15:55:06.686Z,35.940220686792806
2023-04-25T15:58:07.255Z,32.3938510489563
2023-04-25T16:01:18.555Z,32.900217741333776
2023-04-25T16:04:20.158Z,32.84474566087438
2023-04-25T16:07:17.866Z,30.85905574829943
2023-04-25T16:10:24.413Z,30.579410933531324
2023-04-25T16:13:22.981Z,33.20121712289127
2023-04-25T16:16:23.566Z,36.37254937122302
2023-04-25T16:19:24.029Z,30.734055808941225
2023-04-25T16:22:26.616Z,31.69270711784886
2023-04-25T16:25:29.000Z,32.22719110788996
2023-04-25T16:28:36.719Z,31.08591741137984
2023-04-25T16:31:38.314Z,29.781150768013195
2023-04-25T16:34:38.764Z,28.923661878813242
2023-04-25T16:37:39.177Z,28.966273697243793
2023-04-25T16:40:53.463Z,28.154067382331554
2023-04-25T16:43:56.161Z,34.50664073074658
2023-04-25T16:46:56.044Z,36.5155890262857
2023-04-25T16:50:01.871Z,38.07656650110301
2023-04-25T16:53:05.980Z,38.31802723512257
2023-04-25T16:56:01.529Z,38.857658447463
2023-04-25T16:59:06.112Z,37.602018824500036
2023-04-25T17:02:17.511Z,41.51954328027201
2023-04-25T17:05:18.209Z,42.23965941715613
2023-04-25T17:08:23.697Z,43.892799261350405
2023-04-25T17:11:23.244Z,43.68235543395593
2023-04-25T17:14:32.538Z,43.894427501547206
2023-04-25T17:17:28.488Z,43.56230595393042
2023-04-25T17:20:28.957Z,43.51311508634543
2023-04-25T17:23:26.468Z,44.6175823622025
2023-04-25T17:26:31.856Z,44.31976581720376
2023-04-25T17:29:32.398Z,47.02555115330212
2023-04-25T17:32:38.148Z,47.29059223727743
2023-04-25T17:35:38.639Z,46.56350647992554
2023-04-25T17:38:44.004Z,47.36726919203675
2023-04-25T17:41:45.660Z,48.595374578639806
2023-04-25T17:44:41.257Z,49.52292838777442
2023-04-25T17:47:43.026Z,49.859723676232214
2023-04-25T17:50:39.359Z,49.55727603600341
2023-04-25T17:53:39.927Z,47.90212472066523
2023-04-25T17:56:37.500Z,48.36991094202162
2023-04-25T17:59:39.049Z,49.318778036415374
2023-04-25T18:02:40.625Z,49.885291395145295
2023-04-25T18:05:41.138Z,51.27142460093566
2023-04-25T18:08:43.391Z,50.27594323348862
2023-04-25T18:11:46.240Z,49.90118349618729
2023-04-25T18:14:47.766Z,50.779943236478815
2023-04-25T18:17:53.357Z,51.21384649906507
2023-04-25T18:21:01.823Z,51.97718650740215
2023-04-25T18:24:03.358Z,51.118329141706035
2023-04-25T18:27:05.947Z,50.71064631763811
2023-04-25T18:30:02.504Z,51.1402677138721
2023-04-25T18:33:08.098Z,52.17931801661085
2023-04-25T18:36:03.641Z,51.68468151785695
2023-04-25T18:39:11.550Z,52.72595064054535
2023-04-25T18:42:09.691Z,52.32931922163902
2023-04-25T18:45:17.039Z,52.29726731942626
2023-04-25T18:48:17.728Z,51.82483905862789
2023-04-25T18:51:17.327Z,52.50175604556233
2023-04-25T18:54:14.845Z,52.185178845648316
2023-04-25T18:57:14.463Z,53.37238691615294
2023-04-25T19:00:19.951Z,53.30190012544608
2023-04-25T19:03:22.787Z,54.391578713238594
2023-04-25T19:06:29.032Z,54.13883382575013
2023-04-25T19:09:25.583Z,54.31868113134771
2023-04-25T19:12:22.144Z,55.2724447524912
2023-04-25T19:15:23.718Z,55.39239874648664
2023-04-25T19:21:29.667Z,55.72748786833833
2023-04-25T19:24:29.332Z,55.8710225545789
2023-04-25T19:27:24.929Z,57.773419027987856
2023-04-25T19:30:34.468Z,59.33308676329819
2023-04-25T19:33:35.953Z,56.99984504966611
2023-04-25T19:36:42.622Z,56.716745014496325
2023-04-25T19:39:48.059Z,56.00542670945413
2023-04-25T19:42:45.634Z,54.46537151205332
2023-04-25T19:45:46.112Z,55.120216416413555
2023-04-25T19:48:46.682Z,55.49098105609703
2023-04-25T19:51:53.198Z,55.589145700305956
2023-04-25T19:55:02.399Z,54.98741971750361
2023-04-25T19:58:09.282Z,56.0514131362486
2023-04-25T20:01:14.300Z,57.105165622174475
2023-04-25T20:04:19.790Z,58.13808060829898
2023-04-25T20:07:22.976Z,57.368139840305155
2023-04-25T20:10:28.457Z,57.22804936576691
2023-04-25T20:13:29.024Z,57.770344485112446
2023-04-25T20:16:33.614Z,59.41655951347209
2023-04-25T20:19:39.137Z,59.22835113329014
2023-04-25T20:22:36.680Z,61.709385989186075
2023-04-25T20:25:47.713Z,59.767153789345215
2023-04-25T20:28:47.729Z,61.76221435253449
2023-04-25T20:31:44.396Z,60.07943796227909
2023-04-25T20:34:50.871Z,59.29527350219824
2023-04-25T20:37:55.349Z,62.27960385328928
2023-04-25T20:41:00.874Z,60.505589730180205
2023-04-25T20:43:57.418Z,62.48891839526463
2023-04-25T20:47:01.950Z,61.22171692890202
2023-04-25T20:50:04.260Z,61.097947860368876
2023-04-25T20:53:05.029Z,61.574542422740016
2023-04-25T20:56:05.530Z,62.136091141070665
2023-04-25T20:59:19.753Z,62.674468296169856
2023-04-25T21:02:22.804Z,62.48042558687765
2023-04-25T21:05:26.200Z,62.58303830445727
2023-04-25T21:08:35.515Z,62.49290040973072
2023-04-25T21:11:38.436Z,62.58451563416462
2023-04-25T21:14:48.531Z,64.39261557713816
2023-04-25T21:17:49.456Z,63.18775554616377
2023-04-25T21:20:55.676Z,64.0938358738712
2023-04-25T21:24:00.424Z,63.44406606614134
2023-04-25T21:27:03.182Z,65.94318855533069
2023-04-25T21:30:05.496Z,64.96913919037408
2023-04-25T21:33:10.987Z,64.71226619955992
2023-04-25T21:36:12.610Z,64.69477674367553
2023-04-25T21:39:10.144Z,66.5807304775395
2023-04-25T21:42:10.709Z,65.94953643524539
2023-04-25T21:45:12.312Z,65.78053469739785
2023-04-25T21:48:13.102Z,65.52056715016306
2023-04-25T21:51:17.763Z,65.86927629389437
2023-04-25T21:54:20.761Z,67.8303652565592
2023-04-25T21:57:26.419Z,67.53940763030083
2023-04-25T22:00:31.967Z,67.48087145770813
2023-04-25T22:03:33.429Z,68.26231715838085
2023-04-25T22:06:40.037Z,67.57910100724308
2023-04-25T22:09:55.017Z,66.36487637566076
2023-04-25T22:12:59.086Z,66.42723680528583
2023-04-25T22:16:10.584Z,65.12981428687162
2023-04-25T22:19:09.208Z,65.42942434122453
2023-04-25T22:22:05.746Z,66.20901392440683
2023-04-25T22:25:20.078Z,65.56859594892859
2023-04-25T22:28:34.144Z,64.89553861859147
2023-04-25T22:31:42.438Z,64.89474482573179
2023-04-25T22:34:39.851Z,66.71174698772408
2023-04-25T22:37:47.757Z,66.18839022194972
2023-04-25T22:40:48.889Z,64.58585348398867
2023-04-25T22:43:55.276Z,65.23712769552618
2023-04-25T22:47:00.990Z,65.38806300342306
2023-04-25T22:50:12.636Z,66.93136575541193
2023-04-25T22:53:18.788Z,65.9055180096098
2023-04-25T22:56:17.608Z,66.79581502072071
2023-04-25T22:59:27.125Z,68.31989496487213
2023-04-25T23:02:37.994Z,68.28057744650509
2023-04-25T23:05:40.155Z,68.94644717833901
2023-04-25T23:08:37.754Z,68.43508873929208
2023-04-25T23:11:42.282Z,67.52647296804784
2023-04-25T23:14:45.672Z,68.01187140723663
2023-04-25T23:17:44.415Z,67.75884949147772
2023-04-25T23:20:43.963Z,67.68927269855267
2023-04-25T23:23:42.530Z,67.76663131870076
2023-04-25T23:26:48.033Z,67.94535796651716
2023-04-25T23:29:43.573Z,67.1060167796103
2023-04-25T23:32:41.213Z,69.08180397403945
2023-04-25T23:35:37.701Z,70.24826809128903
2023-04-25T23:38:34.249Z,71.05406852985699
2023-04-25T23:41:29.811Z,71.48796267303615
2023-04-25T23:44:25.382Z,72.99163739047063
2023-04-25T23:47:21.060Z,72.9855991774075
2023-04-25T23:50:18.486Z,73.07960372426226
2023-04-25T23:53:15.051Z,72.66378508596948
2023-04-25T23:56:17.578Z,74.0008677792786
2023-04-25T23:59:13.155Z,72.32163817728421
